KHOP/HOP METAR and TAF weather

Enter ICAO airport designator
Station Type Date Time Source
KHOP METAR 2022/08/16 18:56 UTC NOAA

KHOP 161856Z AUTO 25006KT 10SM FEW016 FEW070 FEW180 SCT200 23/23 A3001 RMK AO2 DZB22E31 SLP161 P//// T02330228


Station Type Date Time Source
KHOP Decoded METAR 2022/08/16 18:56 UTC NOAA

Fort Campbell U. S. Army Airfield, KY, United States (KHOP) 36-40N 087-30W 174M
Aug 16, 2022 - 02:56 PM EDT / 2022.08.16 1856 UTC
Wind: from the WSW (250 degrees) at 7 MPH (6 KT):0
Visibility: 10 mile(s):0
Sky conditions: partly cloudy
Temperature: 73.9 F (23.3 C)
Dew Point: 73.0 F (22.8 C)
Relative Humidity: 97%
Pressure (altimeter): 30.01 in. Hg (1016 hPa)
ob: KHOP 161856Z AUTO 25006KT 10SM FEW016 FEW070 FEW180 SCT200 23/23 A3001 RMK AO2 DZB22E31 SLP161 P//// T02330228
cycle: 19

Station Type Date Time Source
KHOP TAF 2022/08/16 18:03 UTC NOAA

TAF
AMD KHOP 161800Z 1618/1722 VRB06KT 9000 -SHRA SCT012 QNH3000INS
TEMPO 1618/1621 BKN012
BECMG 1621/1622 VRB06KT 9999 NSW SCT030 QNH3002INS TX24/1619Z TN17/1711Z

Example: see airport list